createdAt,value
2017-11-06T00:01:30.030Z,6.60
2017-11-06T00:03:57.502Z,6.50
2017-11-06T00:06:24.997Z,6.60
2017-11-06T00:08:52.469Z,6.60
2017-11-06T00:11:19.942Z,6.60
2017-11-06T00:13:47.449Z,6.60
2017-11-06T00:16:15.689Z,6.50
2017-11-06T00:18:43.163Z,6.60
2017-11-06T00:21:10.661Z,6.60
2017-11-06T00:23:38.133Z,6.60
2017-11-06T00:26:05.628Z,6.60
2017-11-06T00:28:33.102Z,6.60
2017-11-06T00:31:00.815Z,6.60
2017-11-06T00:33:28.342Z,6.50
2017-11-06T00:35:56.586Z,6.50
2017-11-06T00:38:24.097Z,6.50
2017-11-06T00:40:51.580Z,6.50
2017-11-06T00:43:19.049Z,6.60
2017-11-06T00:45:46.781Z,6.60
2017-11-06T00:48:14.254Z,6.50
2017-11-06T00:50:41.741Z,6.50
2017-11-06T00:53:09.216Z,6.50
2017-11-06T00:55:37.453Z,6.60
2017-11-06T00:58:04.945Z,6.60
2017-11-06T01:00:33.244Z,6.50
2017-11-06T01:03:00.717Z,6.50
2017-11-06T01:05:28.215Z,6.50
2017-11-06T01:07:55.686Z,6.50
2017-11-06T01:10:23.929Z,6.50
2017-11-06T01:12:51.414Z,6.50
2017-11-06T01:15:18.890Z,6.50
2017-11-06T01:17:47.153Z,6.40
2017-11-06T01:20:15.682Z,6.40
2017-11-06T01:22:43.154Z,6.40
2017-11-06T01:25:10.641Z,6.40
2017-11-06T01:27:38.114Z,6.40
2017-11-06T01:30:06.634Z,6.40
2017-11-06T01:32:34.114Z,6.40
2017-11-06T01:35:01.590Z,6.50
2017-11-06T01:37:29.077Z,6.50
2017-11-06T01:39:57.313Z,6.50
2017-11-06T01:42:24.809Z,6.50
2017-11-06T01:44:52.282Z,6.50
2017-11-06T01:47:19.762Z,6.50
2017-11-06T01:49:47.261Z,6.50
2017-11-06T01:52:15.789Z,6.60
2017-11-06T01:54:43.262Z,6.50
2017-11-06T01:57:10.754Z,6.50
2017-11-06T01:59:38.999Z,6.50
2017-11-06T02:02:06.481Z,6.50
2017-11-06T02:04:33.977Z,6.50
2017-11-06T02:07:01.454Z,6.50
2017-11-06T02:09:28.929Z,6.50
2017-11-06T02:11:56.416Z,6.50
2017-11-06T02:14:24.653Z,6.50
2017-11-06T02:16:52.126Z,6.50
2017-11-06T02:19:19.621Z,6.50
2017-11-06T02:21:47.865Z,6.50
2017-11-06T02:24:15.337Z,6.40
2017-11-06T02:26:43.598Z,6.50
2017-11-06T02:29:11.739Z,6.50
2017-11-06T02:31:39.618Z,6.50
2017-11-06T02:34:07.356Z,6.50
2017-11-06T02:36:34.834Z,6.50
2017-11-06T02:39:02.305Z,6.50
2017-11-06T02:41:29.789Z,6.50
2017-11-06T02:43:58.036Z,6.40
2017-11-06T02:46:25.530Z,6.40
2017-11-06T02:48:53.769Z,6.40
2017-11-06T02:51:21.245Z,6.40
2017-11-06T02:53:49.521Z,6.40
2017-11-06T02:56:16.989Z,6.40
2017-11-06T02:58:45.234Z,6.40
2017-11-06T03:01:12.732Z,6.40
2017-11-06T03:03:40.965Z,6.40
2017-11-06T03:06:08.461Z,6.40
2017-11-06T03:08:36.705Z,6.30
2017-11-06T03:11:04.173Z,6.30
2017-11-06T03:13:31.661Z,6.30
2017-11-06T03:15:59.134Z,6.30
2017-11-06T03:18:26.625Z,6.30
2017-11-06T03:20:54.100Z,6.20
2017-11-06T03:23:21.573Z,6.20
2017-11-06T03:25:49.830Z,6.20
2017-11-06T03:28:17.302Z,6.20
2017-11-06T03:30:45.538Z,6.20
2017-11-06T03:33:13.025Z,6.10
2017-11-06T03:35:40.489Z,6.10
2017-11-06T03:38:08.726Z,6.10
2017-11-06T03:40:36.217Z,6.10
2017-11-06T03:43:03.693Z,6.20
2017-11-06T03:45:31.929Z,6.20
2017-11-06T03:47:59.421Z,6.20
2017-11-06T03:50:27.666Z,6.20
2017-11-06T03:52:55.141Z,6.20
2017-11-06T03:55:23.414Z,6.20
2017-11-06T03:57:50.899Z,6.20
2017-11-06T04:00:18.382Z,6.20
2017-11-06T04:02:45.877Z,6.20
2017-11-06T04:05:13.577Z,6.20
2017-11-06T04:07:41.057Z,6.20
2017-11-06T04:10:08.557Z,6.20
2017-11-06T04:12:36.038Z,6.20
2017-11-06T04:15:04.278Z,6.10
2017-11-06T04:17:31.769Z,6.10
2017-11-06T04:20:00.011Z,6.10
2017-11-06T04:22:27.486Z,6.10
2017-11-06T04:24:54.974Z,6.10
2017-11-06T04:27:22.458Z,6.10
2017-11-06T04:29:50.392Z,6.10
2017-11-06T04:32:18.092Z,6.10
2017-11-06T04:34:45.566Z,6.10
2017-11-06T04:37:13.054Z,6.10
2017-11-06T04:39:41.301Z,6.00
2017-11-06T04:42:08.806Z,6.00
2017-11-06T04:44:36.311Z,6.00
2017-11-06T04:47:03.787Z,6.00
2017-11-06T04:49:31.277Z,6.00
2017-11-06T04:51:58.951Z,6.00
2017-11-06T04:54:26.430Z,6.00
2017-11-06T04:56:53.922Z,6.00
2017-11-06T04:59:21.407Z,5.90
2017-11-06T05:01:48.993Z,5.90
2017-11-06T05:04:16.470Z,5.90
2017-11-06T05:06:43.973Z,5.90
2017-11-06T05:09:12.225Z,6.00
2017-11-06T05:11:39.698Z,6.00
2017-11-06T05:14:07.940Z,6.00
2017-11-06T05:16:35.429Z,6.00
2017-11-06T05:19:03.670Z,6.00
2017-11-06T05:21:31.142Z,6.00
2017-11-06T05:23:58.637Z,6.00
2017-11-06T05:26:26.115Z,6.00
2017-11-06T05:28:53.602Z,6.00
2017-11-06T05:31:21.153Z,6.00
2017-11-06T05:33:48.632Z,5.90
2017-11-06T05:36:16.114Z,5.90
2017-11-06T05:38:44.378Z,6.00
2017-11-06T05:41:12.622Z,6.00
2017-11-06T05:43:40.114Z,5.90
2017-11-06T05:46:07.642Z,6.00
2017-11-06T05:48:35.114Z,6.00
2017-11-06T05:51:02.594Z,6.00
2017-11-06T05:53:31.113Z,5.90
2017-11-06T05:55:58.582Z,5.90
2017-11-06T05:58:26.053Z,5.90
2017-11-06T06:00:53.541Z,5.90
2017-11-06T06:03:21.783Z,5.90
2017-11-06T06:05:49.258Z,5.80
2017-11-06T06:08:16.750Z,5.90
2017-11-06T06:10:44.226Z,5.90
2017-11-06T06:13:11.701Z,5.80
2017-11-06T06:15:39.186Z,5.80
2017-11-06T06:18:06.657Z,5.80
2017-11-06T06:20:34.934Z,5.80
2017-11-06T06:23:03.173Z,5.80
2017-11-06T06:25:30.646Z,5.80
2017-11-06T06:27:58.141Z,5.80
2017-11-06T06:30:25.623Z,5.80
2017-11-06T06:32:53.113Z,5.80
2017-11-06T06:35:20.589Z,5.80
2017-11-06T06:37:48.066Z,5.80
2017-11-06T06:40:15.558Z,5.80
2017-11-06T06:42:43.029Z,5.80
2017-11-06T06:45:10.782Z,5.90
2017-11-06T06:47:38.257Z,5.90
2017-11-06T06:50:05.725Z,5.90
2017-11-06T06:52:33.214Z,6.00
2017-11-06T06:55:01.454Z,5.90
2017-11-06T06:57:28.953Z,5.90
2017-11-06T06:59:56.428Z,5.90
2017-11-06T07:02:23.909Z,6.00
2017-11-06T07:04:51.657Z,6.00
2017-11-06T07:07:19.129Z,6.10
2017-11-06T07:09:46.601Z,6.00
2017-11-06T07:12:14.086Z,6.10
2017-11-06T07:14:42.330Z,6.00
2017-11-06T07:17:09.822Z,6.00
2017-11-06T07:19:38.059Z,5.90
2017-11-06T07:22:05.535Z,5.90
2017-11-06T07:24:33.033Z,5.90
2017-11-06T07:27:00.507Z,5.90
2017-11-06T07:29:27.979Z,5.80
2017-11-06T07:31:55.469Z,5.80
2017-11-06T07:34:22.941Z,5.90
2017-11-06T07:36:51.178Z,6.00
2017-11-06T07:39:18.670Z,5.90
2017-11-06T07:41:46.905Z,6.00
2017-11-06T07:44:14.377Z,6.00
2017-11-06T07:46:41.869Z,6.00
2017-11-06T07:49:10.105Z,6.00
2017-11-06T07:51:37.574Z,5.90
2017-11-06T07:54:05.068Z,6.00
2017-11-06T07:56:32.542Z,6.00
2017-11-06T07:59:00.041Z,6.00
2017-11-06T08:01:27.764Z,6.00
2017-11-06T08:03:55.233Z,6.00
2017-11-06T08:06:22.723Z,6.00
2017-11-06T08:08:50.199Z,6.00
2017-11-06T08:11:18.439Z,6.10
2017-11-06T08:13:46.178Z,6.10
2017-11-06T08:16:13.650Z,6.20
2017-11-06T08:18:41.153Z,6.20
2017-11-06T08:21:09.401Z,6.30
2017-11-06T08:23:36.882Z,6.30
2017-11-06T08:26:05.142Z,6.40
2017-11-06T08:28:32.609Z,6.40
2017-11-06T08:31:00.849Z,6.40
2017-11-06T08:33:28.333Z,6.40
2017-11-06T08:35:55.814Z,6.40
2017-11-06T08:38:24.073Z,6.50
2017-11-06T08:40:52.331Z,6.50
2017-11-06T08:43:19.805Z,6.50
2017-11-06T08:45:47.293Z,6.50
2017-11-06T08:48:14.767Z,6.60
2017-11-06T08:50:42.533Z,6.60
2017-11-06T08:53:10.009Z,6.60
2017-11-06T08:55:37.502Z,6.60
2017-11-06T08:58:05.745Z,6.70
2017-11-06T09:00:33.221Z,6.70
2017-11-06T09:03:00.714Z,6.70
2017-11-06T09:05:28.186Z,6.70
2017-11-06T09:07:55.661Z,6.70
2017-11-06T09:10:23.151Z,6.70
2017-11-06T09:12:50.626Z,6.70
2017-11-06T09:15:18.878Z,6.60
2017-11-06T09:17:46.370Z,6.60
2017-11-06T09:20:14.605Z,6.60
2017-11-06T09:22:42.081Z,6.60
2017-11-06T09:25:09.902Z,6.60
2017-11-06T09:27:37.374Z,6.70
2017-11-06T09:30:04.877Z,6.70
2017-11-06T09:32:33.118Z,6.70
2017-11-06T09:35:00.589Z,6.70
2017-11-06T09:37:28.867Z,6.70
2017-11-06T09:39:56.341Z,6.70
2017-11-06T09:42:24.581Z,6.70
2017-11-06T09:44:52.081Z,6.70
2017-11-06T09:47:19.560Z,6.70
2017-11-06T09:49:47.041Z,6.60
2017-11-06T09:52:14.599Z,6.60
2017-11-06T09:54:42.090Z,6.70
2017-11-06T09:57:10.349Z,6.70
2017-11-06T09:59:37.826Z,6.70
2017-11-06T10:02:06.069Z,6.60
2017-11-06T10:04:33.562Z,6.60
2017-11-06T10:07:01.801Z,6.60
2017-11-06T10:09:29.306Z,6.60
2017-11-06T10:11:57.561Z,6.70
2017-11-06T10:14:25.066Z,6.70
2017-11-06T10:16:52.565Z,6.80
2017-11-06T10:19:20.049Z,6.80
2017-11-06T10:21:48.305Z,6.90
2017-11-06T10:24:15.803Z,6.90
2017-11-06T10:26:43.273Z,7.00
2017-11-06T10:29:10.755Z,7.00
2017-11-06T10:31:38.246Z,7.10
2017-11-06T10:34:06.486Z,7.20
2017-11-06T10:36:33.981Z,7.20
2017-11-06T10:39:02.221Z,7.20
2017-11-06T10:41:29.702Z,7.20
2017-11-06T10:43:57.193Z,7.20
2017-11-06T10:46:24.725Z,7.30
2017-11-06T10:48:53.002Z,7.50
2017-11-06T10:51:21.321Z,7.50
2017-11-06T10:53:48.814Z,7.50
2017-11-06T10:56:16.287Z,7.50
2017-11-06T10:58:43.830Z,7.40
2017-11-06T11:01:11.329Z,7.40
2017-11-06T11:03:38.820Z,7.40
2017-11-06T11:06:06.681Z,7.40
2017-11-06T11:08:34.205Z,7.40
2017-11-06T11:11:02.474Z,7.40
2017-11-06T11:13:30.802Z,7.30
2017-11-06T11:15:58.277Z,7.30
2017-11-06T11:18:25.786Z,7.30
2017-11-06T11:20:53.293Z,7.20
2017-11-06T11:23:20.764Z,7.30
2017-11-06T11:25:48.259Z,7.30
2017-11-06T11:28:15.817Z,7.20
2017-11-06T11:30:44.914Z,7.40
2017-11-06T11:33:12.430Z,7.30
2017-11-06T11:35:39.898Z,7.40
2017-11-06T11:38:07.370Z,7.50
2017-11-06T11:40:35.625Z,7.70
2017-11-06T11:43:03.341Z,7.70
2017-11-06T11:45:30.814Z,7.80
2017-11-06T11:47:58.302Z,8.00
2017-11-06T11:50:25.776Z,8.10
2017-11-06T11:52:54.294Z,8.30
2017-11-06T11:55:21.765Z,8.30
2017-11-06T11:57:49.237Z,8.30
2017-11-06T12:00:16.733Z,8.40
2017-11-06T12:02:44.965Z,8.40
2017-11-06T12:05:12.445Z,8.40
2017-11-06T12:07:39.937Z,8.50
2017-11-06T12:10:07.402Z,8.50
2017-11-06T12:12:34.872Z,8.50
2017-11-06T12:15:02.356Z,8.60
2017-11-06T12:17:29.829Z,8.60
2017-11-06T12:19:57.325Z,8.70
2017-11-06T12:22:24.809Z,8.80
2017-11-06T12:24:52.282Z,8.90
2017-11-06T12:27:19.778Z,8.80
2017-11-06T12:29:48.014Z,8.80
2017-11-06T12:32:15.498Z,8.80
2017-11-06T12:34:43.738Z,8.90
2017-11-06T12:37:11.209Z,8.80
2017-11-06T12:39:38.910Z,8.90
2017-11-06T12:42:07.142Z,8.80
2017-11-06T12:44:34.689Z,8.80
2017-11-06T12:47:02.922Z,8.60
2017-11-06T12:49:30.394Z,8.60
2017-11-06T12:51:57.872Z,8.50
2017-11-06T12:54:25.344Z,8.50
2017-11-06T12:56:52.841Z,8.40
2017-11-06T12:59:21.113Z,8.30
2017-11-06T13:01:49.349Z,8.20
2017-11-06T13:04:16.838Z,8.20
2017-11-06T13:06:45.086Z,7.90
2017-11-06T13:09:12.557Z,7.90
2017-11-06T13:11:40.050Z,7.90
2017-11-06T13:14:07.526Z,7.90
2017-11-06T13:16:35.021Z,7.90
2017-11-06T13:19:02.489Z,7.80
2017-11-06T13:21:29.978Z,7.80
2017-11-06T13:23:57.455Z,7.90
2017-11-06T13:26:24.941Z,7.90
2017-11-06T13:28:52.417Z,8.00
2017-11-06T13:31:19.906Z,8.00
2017-11-06T13:33:48.137Z,8.00
2017-11-06T13:36:15.609Z,8.00
2017-11-06T13:38:43.094Z,8.10
2017-11-06T13:41:10.568Z,8.10
2017-11-06T13:43:38.076Z,8.10
2017-11-06T13:46:06.379Z,8.20
2017-11-06T13:48:34.636Z,8.30
2017-11-06T13:51:02.160Z,8.30
2017-11-06T13:53:29.661Z,8.40
2017-11-06T13:55:57.918Z,8.50
2017-11-06T13:58:25.462Z,8.50
2017-11-06T14:00:52.949Z,8.50
2017-11-06T14:03:20.437Z,8.50
2017-11-06T14:05:47.915Z,8.50
2017-11-06T14:08:15.389Z,8.40
2017-11-06T14:10:42.881Z,8.30
2017-11-06T14:13:11.118Z,8.10
2017-11-06T14:15:38.590Z,8.10
2017-11-06T14:18:06.073Z,8.10
2017-11-06T14:20:34.313Z,8.10
2017-11-06T14:23:01.806Z,8.10
2017-11-06T14:25:30.073Z,8.20
2017-11-06T14:27:57.589Z,8.10
2017-11-06T14:30:25.069Z,8.10
2017-11-06T14:32:53.344Z,8.10
2017-11-06T14:35:21.630Z,8.10
2017-11-06T14:37:49.356Z,8.10
2017-11-06T14:40:16.825Z,8.10
2017-11-06T14:42:44.322Z,8.10
2017-11-06T14:45:12.564Z,8.10
2017-11-06T14:47:40.042Z,8.00
2017-11-06T14:50:07.529Z,8.00
2017-11-06T14:52:35.010Z,7.90
2017-11-06T14:55:02.505Z,7.80
2017-11-06T14:57:29.981Z,7.70
2017-11-06T14:59:57.469Z,7.70
2017-11-06T15:02:25.178Z,7.70
2017-11-06T15:04:52.650Z,7.60
2017-11-06T15:07:20.346Z,7.60
2017-11-06T15:09:47.838Z,7.70
2017-11-06T15:12:16.081Z,7.60
2017-11-06T15:14:43.573Z,7.60
2017-11-06T15:17:11.046Z,7.60
2017-11-06T15:19:38.523Z,7.60
2017-11-06T15:22:06.785Z,7.50
2017-11-06T15:24:34.257Z,7.50
2017-11-06T15:27:01.750Z,7.50
2017-11-06T15:29:29.227Z,7.40
2017-11-06T15:31:56.933Z,7.40
2017-11-06T15:34:24.430Z,7.40
2017-11-06T15:36:51.906Z,7.40
2017-11-06T15:39:19.376Z,7.30
2017-11-06T15:41:46.869Z,7.30
2017-11-06T15:44:15.105Z,7.20
2017-11-06T15:46:42.602Z,7.10
2017-11-06T15:49:10.854Z,7.00
2017-11-06T15:51:38.585Z,7.00
2017-11-06T15:54:06.077Z,7.10
2017-11-06T15:56:33.553Z,6.90
2017-11-06T15:59:01.792Z,6.90
2017-11-06T16:01:29.291Z,6.90
2017-11-06T16:03:57.530Z,6.90
2017-11-06T16:06:25.040Z,6.80
2017-11-06T16:08:52.513Z,6.90
2017-11-06T16:11:19.990Z,6.80
2017-11-06T16:13:47.484Z,6.70
2017-11-06T16:16:14.961Z,6.70
2017-11-06T16:18:43.197Z,6.80
2017-11-06T16:21:10.698Z,6.80
2017-11-06T16:23:38.179Z,6.80
2017-11-06T16:26:05.677Z,6.80
2017-11-06T16:28:33.149Z,6.70
2017-11-06T16:31:01.398Z,6.70
2017-11-06T16:33:28.897Z,6.70
2017-11-06T16:35:57.133Z,6.70
2017-11-06T16:38:24.608Z,6.70
2017-11-06T16:40:52.102Z,6.70
2017-11-06T16:43:19.574Z,6.70
2017-11-06T16:45:47.056Z,6.70
2017-11-06T16:48:14.573Z,6.70
2017-11-06T16:50:42.074Z,6.70
2017-11-06T16:53:09.589Z,6.60
2017-11-06T16:55:37.086Z,6.60
2017-11-06T16:58:04.560Z,6.50
2017-11-06T17:00:32.033Z,6.60
2017-11-06T17:03:00.289Z,6.50
2017-11-06T17:05:27.774Z,6.50
2017-11-06T17:07:56.041Z,6.50
2017-11-06T17:10:24.573Z,6.50
2017-11-06T17:12:52.065Z,6.50
2017-11-06T17:15:19.543Z,6.50
2017-11-06T17:17:47.798Z,6.40
2017-11-06T17:20:15.310Z,6.40
2017-11-06T17:22:42.802Z,6.50
2017-11-06T17:25:10.294Z,6.50
2017-11-06T17:27:38.601Z,6.50
2017-11-06T17:30:06.134Z,6.50
2017-11-06T17:32:34.637Z,6.50
2017-11-06T17:35:02.113Z,6.50
2017-11-06T17:37:29.617Z,6.50
2017-11-06T17:39:57.849Z,6.50
2017-11-06T17:42:25.322Z,6.50
2017-11-06T17:44:52.872Z,6.50
2017-11-06T17:47:20.352Z,6.50
2017-11-06T17:49:47.877Z,6.50
2017-11-06T17:52:15.370Z,6.50
2017-11-06T17:54:42.842Z,6.40
2017-11-06T17:57:11.846Z,6.50
2017-11-06T17:59:39.369Z,6.40
2017-11-06T18:02:06.913Z,6.40
2017-11-06T18:04:34.407Z,6.40
2017-11-06T18:07:02.936Z,6.30
2017-11-06T18:09:30.415Z,6.30
2017-11-06T18:11:59.570Z,6.20
2017-11-06T18:14:27.869Z,6.20
2017-11-06T18:16:55.366Z,6.20
2017-11-06T18:19:23.673Z,6.20
2017-11-06T18:21:51.170Z,6.10
2017-11-06T18:24:18.645Z,6.20
2017-11-06T18:26:46.377Z,6.20
2017-11-06T18:29:13.960Z,6.20
2017-11-06T18:31:41.523Z,6.20
2017-11-06T18:34:09.970Z,6.10
2017-11-06T18:36:37.506Z,6.10
2017-11-06T18:39:06.114Z,6.10
2017-11-06T18:41:34.505Z,6.20
2017-11-06T18:44:02.009Z,6.20
2017-11-06T18:46:30.305Z,6.20
2017-11-06T18:48:57.962Z,6.20
2017-11-06T18:51:25.825Z,6.20
2017-11-06T18:53:53.430Z,6.20
2017-11-06T18:56:21.014Z,6.20
2017-11-06T18:58:48.743Z,6.30
2017-11-06T19:01:16.350Z,6.30
2017-11-06T19:03:44.883Z,6.20
2017-11-06T19:06:12.374Z,6.20
2017-11-06T19:08:39.850Z,6.20
2017-11-06T19:11:08.444Z,6.20
2017-11-06T19:13:35.975Z,6.20
2017-11-06T19:16:05.030Z,6.20
2017-11-06T19:18:32.524Z,6.20
2017-11-06T19:20:59.993Z,6.20
2017-11-06T19:23:28.278Z,6.20
2017-11-06T19:25:56.772Z,6.20
2017-11-06T19:28:24.304Z,6.20
2017-11-06T19:30:51.812Z,6.20
2017-11-06T19:33:19.290Z,6.30
2017-11-06T19:35:46.766Z,6.30
2017-11-06T19:38:14.509Z,6.30
2017-11-06T19:40:42.367Z,6.30
2017-11-06T19:43:09.880Z,6.30
2017-11-06T19:45:38.138Z,6.30
2017-11-06T19:48:05.614Z,6.30
2017-11-06T19:50:34.137Z,6.30
2017-11-06T19:53:01.613Z,6.30
2017-11-06T19:55:29.077Z,6.30
2017-11-06T19:57:56.609Z,6.30
2017-11-06T20:00:24.081Z,6.20
2017-11-06T20:02:51.825Z,6.20
2017-11-06T20:05:19.485Z,6.20
2017-11-06T20:07:46.981Z,6.30
2017-11-06T20:10:15.958Z,6.20
2017-11-06T20:12:43.452Z,6.20
2017-11-06T20:15:11.694Z,6.20
2017-11-06T20:17:39.169Z,6.30
2017-11-06T20:20:06.665Z,6.30
2017-11-06T20:22:34.134Z,6.30
2017-11-06T20:25:01.910Z,6.30
2017-11-06T20:27:29.418Z,6.20
2017-11-06T20:29:57.657Z,6.20
2017-11-06T20:32:25.125Z,6.20
2017-11-06T20:34:52.609Z,6.20
2017-11-06T20:37:20.867Z,6.30
2017-11-06T20:39:48.345Z,6.20
2017-11-06T20:42:16.635Z,6.30
2017-11-06T20:44:44.141Z,6.30
2017-11-06T20:47:11.618Z,6.20
2017-11-06T20:49:39.098Z,6.20
2017-11-06T20:52:07.617Z,6.20
2017-11-06T20:54:35.090Z,6.20
2017-11-06T20:57:02.568Z,6.20
2017-11-06T20:59:31.113Z,6.20
2017-11-06T21:01:58.593Z,6.20
2017-11-06T21:04:26.090Z,6.20
2017-11-06T21:06:54.338Z,6.20
2017-11-06T21:09:21.815Z,6.10
2017-11-06T21:11:50.082Z,6.20
2017-11-06T21:14:17.566Z,6.20
2017-11-06T21:16:45.037Z,6.20
2017-11-06T21:19:12.534Z,6.20
2017-11-06T21:21:40.001Z,6.10
2017-11-06T21:24:07.477Z,6.10
2017-11-06T21:26:35.743Z,6.10
2017-11-06T21:29:03.213Z,6.10
2017-11-06T21:31:31.450Z,6.10
2017-11-06T21:33:58.944Z,6.10
2017-11-06T21:36:27.185Z,6.00
2017-11-06T21:38:54.659Z,6.00
2017-11-06T21:41:22.149Z,6.10
2017-11-06T21:43:49.621Z,6.10
2017-11-06T21:46:17.113Z,6.10
2017-11-06T21:48:44.585Z,6.10
2017-11-06T21:51:12.058Z,6.10
2017-11-06T21:53:40.533Z,6.20
2017-11-06T21:56:08.466Z,6.20
2017-11-06T21:58:35.941Z,6.10
2017-11-06T22:01:03.457Z,6.10
2017-11-06T22:03:31.741Z,6.10
2017-11-06T22:05:59.241Z,6.10
2017-11-06T22:08:26.914Z,6.20
2017-11-06T22:10:54.385Z,6.20
2017-11-06T22:13:23.351Z,6.20
2017-11-06T22:15:51.612Z,6.30
2017-11-06T22:18:19.499Z,6.30
2017-11-06T22:20:47.382Z,6.20
2017-11-06T22:23:16.031Z,6.30
2017-11-06T22:25:44.309Z,6.30
2017-11-06T22:28:12.461Z,6.30
2017-11-06T22:30:40.617Z,6.30
2017-11-06T22:33:08.090Z,6.30
2017-11-06T22:35:35.589Z,6.40
2017-11-06T22:38:04.235Z,6.30
2017-11-06T22:40:31.709Z,6.20
2017-11-06T22:42:59.200Z,6.20
2017-11-06T22:45:27.663Z,6.30
2017-11-06T22:47:55.141Z,6.30
2017-11-06T22:50:23.410Z,6.20
2017-11-06T22:52:52.045Z,6.30
2017-11-06T22:55:19.517Z,6.30
2017-11-06T22:57:47.005Z,6.30
2017-11-06T23:00:14.480Z,6.30
2017-11-06T23:02:41.962Z,6.40
2017-11-06T23:05:09.458Z,6.30
2017-11-06T23:07:37.186Z,6.30
2017-11-06T23:10:04.657Z,6.30
2017-11-06T23:12:32.153Z,6.40
2017-11-06T23:14:59.629Z,6.40
2017-11-06T23:17:27.893Z,6.40
2017-11-06T23:19:56.138Z,6.40
2017-11-06T23:22:23.608Z,6.40
2017-11-06T23:24:51.098Z,6.40
2017-11-06T23:27:18.575Z,6.40
2017-11-06T23:29:46.065Z,6.30
2017-11-06T23:32:13.537Z,6.30
2017-11-06T23:34:41.005Z,6.20
2017-11-06T23:37:09.265Z,6.20
2017-11-06T23:39:36.733Z,6.20
2017-11-06T23:42:04.210Z,6.30
2017-11-06T23:44:32.469Z,6.30
2017-11-06T23:46:59.936Z,6.30
2017-11-06T23:49:28.776Z,6.30
2017-11-06T23:51:56.271Z,6.30
2017-11-06T23:54:23.748Z,6.30
2017-11-06T23:56:51.989Z,6.20
2017-11-06T23:59:19.477Z,6.20
